Time;durP1;ratioP1;P1;durP2;ratioP2;P2;SDS_P1;SDS_P2;PMS_P1;PMS_P2;Temp;Humidity;BMP_temperature;BMP_pressure;BME280_temperature;BME280_humidity;BME280_pressure;Samples;Min_cycle;Max_cycle;Signal;HPM_P1;HPM_P2
2022/03/08 00:00:39;;;;;;;;;;;;;;;-0.59;49.74;92968.56;2041119;70;20505;-72
2022/03/08 00:03:05;;;;;;;;;;;;;;;-0.64;50.17;92966.59;2037875;70;20118;-72
2022/03/08 00:05:31;;;;;;;;;;;;;;;-0.73;50.72;92970.56;2040850;70;20047;-72
2022/03/08 00:07:57;;;;;;;;;;;;;;;-0.89;51.37;92975.13;2040934;70;20094;-72
2022/03/08 00:10:23;;;;;;;;;;;;;;;-0.85;50.59;92978.31;2040401;70;20084;-72
2022/03/08 00:12:49;;;;;;;;;;;;;;;-0.75;50.58;92975.13;2040250;70;20142;-73
2022/03/08 00:15:17;;;;;;;;;;;;;;;-0.93;50.99;92976.69;2040681;70;20508;-72
2022/03/08 00:17:42;;;;;;;;;;;;;;;-0.98;50.79;92966.50;2040706;70;20519;-71
2022/03/08 00:20:09;;;;;;;;;;;;;;;-0.96;50.82;92975.75;2040805;70;20048;-71
2022/03/08 00:22:36;;;;;;;;;;;;;;;-0.85;50.82;92977.56;2040345;70;20488;-73
2022/03/08 00:25:03;;;;;;;;;;;;;;;-0.81;50.66;92981.50;2040655;70;20054;-72
2022/03/08 00:27:30;;;;;;;;;;;;;;;-0.95;51.14;92968.94;2040817;70;20044;-74
2022/03/08 00:29:56;;;;;;;;;;;;;;;-0.95;50.87;92970.97;2040255;70;20059;-74
2022/03/08 00:32:22;;;;;;;;;;;;;;;-1.06;50.83;92969.13;2040759;70;20072;-73
2022/03/08 00:34:48;;;;;;;;;;;;;;;-0.99;49.43;92971.28;2040628;70;20512;-73
2022/03/08 00:37:13;;;;;;;;;;;;;;;-1.03;49.45;92971.59;2041074;70;20150;-74
2022/03/08 00:39:39;;;;;;;;;;;;;;;-1.16;50.09;92963.28;2040862;70;20087;-73
2022/03/08 00:42:05;;;;;;;;;;;;;;;-1.11;50.42;92964.44;2040299;70;20054;-74
2022/03/08 00:44:31;;;;;;;;;;;;;;;-1.12;50.85;92968.50;2040691;70;20066;-73
2022/03/08 00:46:56;;;;;;;;;;;;;;;-1.18;50.87;92970.63;2041049;70;20052;-73
2022/03/08 00:49:22;;;;;;;;;;;;;;;-1.10;50.81;92960.41;2040507;70;20084;-73
2022/03/08 00:51:47;;;;;;;;;;;;;;;-1.22;51.36;92967.41;2040483;70;20099;-72
2022/03/08 00:54:14;;;;;;;;;;;;;;;-1.34;51.03;92964.81;2046336;70;20098;-73
2022/03/08 00:56:39;;;;;;;;;;;;;;;-1.17;49.05;92967.31;2041169;70;20059;-71
2022/03/08 00:59:05;;;;;;;;;;;;;;;-1.42;50.94;92966.72;2041268;70;20516;-71
2022/03/08 01:01:30;;;;;;;;;;;;;;;-1.26;51.43;92964.22;2041153;70;20143;-72
2022/03/08 01:03:57;;;;;;;;;;;;;;;-1.35;50.78;92960.56;2040447;70;20165;-73
2022/03/08 01:06:23;;;;;;;;;;;;;;;-1.23;50.51;92960.41;2040918;70;20182;-72
2022/03/08 01:08:49;;;;;;;;;;;;;;;-1.39;50.18;92954.63;2040716;70;20123;-72
2022/03/08 01:11:15;;;;;;;;;;;;;;;-1.52;50.68;92951.81;2041082;70;20075;-72
2022/03/08 01:13:41;;;;;;;;;;;;;;;-1.56;50.48;92948.63;2040528;70;20136;-72
2022/03/08 01:16:07;;;;;;;;;;;;;;;-1.56;50.67;92945.84;2040720;70;20039;-72
2022/03/08 01:18:33;;;;;;;;;;;;;;;-1.57;50.88;92945.09;2040980;70;20087;-73
2022/03/08 01:20:58;;;;;;;;;;;;;;;-1.65;51.87;92937.97;2040808;70;20078;-73
2022/03/08 01:23:24;;;;;;;;;;;;;;;-1.64;51.79;92933.97;2040842;70;20420;-74
2022/03/08 01:25:50;;;;;;;;;;;;;;;-1.55;51.21;92934.31;2040466;70;20056;-72
2022/03/08 01:28:15;;;;;;;;;;;;;;;-1.63;50.16;92929.91;2041158;70;20052;-73
2022/03/08 01:30:42;;;;;;;;;;;;;;;-1.68;50.28;92941.78;2040586;70;20485;-73
2022/03/08 01:33:08;;;;;;;;;;;;;;;-1.74;51.40;92938.34;2041438;70;20492;-73
2022/03/08 01:35:34;;;;;;;;;;;;;;;-1.64;51.99;92933.97;2040802;70;20532;-74
2022/03/08 01:37:59;;;;;;;;;;;;;;;-1.80;51.90;92936.44;2046412;70;20050;-74
2022/03/08 01:40:25;;;;;;;;;;;;;;;-1.92;51.80;92928.88;2040931;70;20056;-74
2022/03/08 01:42:51;;;;;;;;;;;;;;;-1.83;52.12;92929.22;2041549;70;20436;-73
2022/03/08 01:45:21;;;;;;;;;;;;;;;-1.82;52.17;92933.47;2041446;70;20059;-73
2022/03/08 01:47:47;;;;;;;;;;;;;;;-1.81;51.76;92925.94;2041478;70;20499;-73
2022/03/08 01:50:15;;;;;;;;;;;;;;;-1.58;51.00;92926.31;2041528;70;20098;-73
2022/03/08 01:52:41;;;;;;;;;;;;;;;-1.87;51.79;92923.25;2041505;70;20052;-73
2022/03/08 01:55:07;;;;;;;;;;;;;;;-1.77;51.25;92923.59;2041504;70;20500;-74
2022/03/08 01:57:33;;;;;;;;;;;;;;;-1.88;52.46;92923.75;2040892;70;20605;-74
2022/03/08 01:59:58;;;;;;;;;;;;;;;-1.97;52.75;92921.41;2041915;70;20116;-73
2022/03/08 02:02:24;;;;;;;;;;;;;;;-2.03;53.07;92917.97;2048544;70;20143;-74
2022/03/08 02:04:50;;;;;;;;;;;;;;;-1.86;51.63;92915.72;2041622;70;20420;-73
2022/03/08 02:07:18;;;;;;;;;;;;;;;-2.08;51.47;92914.78;2041424;70;20063;-74
2022/03/08 02:09:44;;;;;;;;;;;;;;;-2.03;52.26;92915.22;2041471;70;20063;-74
2022/03/08 02:12:10;;;;;;;;;;;;;;;-1.92;53.01;92912.31;2040904;70;20447;-74
2022/03/08 02:14:36;;;;;;;;;;;;;;;-1.99;52.30;92913.66;2041467;70;20040;-73
2022/03/08 02:17:02;;;;;;;;;;;;;;;-1.91;53.08;92917.28;2041490;70;20048;-73
2022/03/08 02:19:28;;;;;;;;;;;;;;;-2.08;53.18;92911.28;2041488;70;20047;-73
2022/03/08 02:21:54;;;;;;;;;;;;;;;-2.06;52.10;92911.50;2041488;70;20074;-72
2022/03/08 02:24:19;;;;;;;;;;;;;;;-2.11;53.39;92915.84;2041536;70;20420;-74
2022/03/08 02:26:45;;;;;;;;;;;;;;;-2.18;53.10;92910.91;2041424;70;20485;-72
2022/03/08 02:29:11;;;;;;;;;;;;;;;-2.11;52.59;92909.56;2041320;70;20149;-72
2022/03/08 02:31:36;;;;;;;;;;;;;;;-2.15;52.90;92917.41;2041554;70;20428;-74
2022/03/08 02:34:02;;;;;;;;;;;;;;;-2.19;53.01;92912.19;2041421;70;20485;-74
2022/03/08 02:36:28;;;;;;;;;;;;;;;-2.11;52.05;92910.31;2041450;70;20181;-73
2022/03/08 02:38:53;;;;;;;;;;;;;;;-2.25;53.17;92919.03;2041412;70;20068;-74
2022/03/08 02:41:19;;;;;;;;;;;;;;;-2.30;52.22;92907.56;2041271;70;20048;-74
2022/03/08 02:43:44;;;;;;;;;;;;;;;-2.34;53.24;92914.63;2041284;70;20052;-74
2022/03/08 02:46:10;;;;;;;;;;;;;;;-2.52;53.56;92921.66;2041382;70;20151;-73
2022/03/08 02:48:36;;;;;;;;;;;;;;;-2.42;53.46;92924.78;2041336;70;20065;-72
2022/03/08 02:51:01;;;;;;;;;;;;;;;-2.19;51.41;92920.47;2041420;70;20059;-73
2022/03/08 02:53:28;;;;;;;;;;;;;;;-2.20;50.86;92930.00;2041472;70;20114;-73
2022/03/08 02:55:53;;;;;;;;;;;;;;;-2.47;52.85;92926.38;2040846;70;20067;-73
2022/03/08 02:58:19;;;;;;;;;;;;;;;-2.45;52.47;92932.09;2041270;70;20143;-73
2022/03/08 03:00:44;;;;;;;;;;;;;;;-2.38;52.23;92923.22;2040717;70;20051;-73
2022/03/08 03:03:11;;;;;;;;;;;;;;;-2.38;52.57;92919.72;2041357;70;20044;-73
2022/03/08 03:05:37;;;;;;;;;;;;;;;-2.47;53.24;92931.13;2041366;70;20053;-73
2022/03/08 03:08:03;;;;;;;;;;;;;;;-2.64;53.14;92934.84;2041281;70;20050;-73
2022/03/08 03:10:29;;;;;;;;;;;;;;;-2.59;53.82;92925.75;2041195;70;20051;-74
2022/03/08 03:12:55;;;;;;;;;;;;;;;-2.50;53.49;92930.16;2041404;70;20517;-73
2022/03/08 03:15:21;;;;;;;;;;;;;;;-2.50;52.08;92938.41;2041213;70;20048;-74
2022/03/08 03:17:47;;;;;;;;;;;;;;;-2.62;53.46;92932.28;2041343;70;20088;-72
2022/03/08 03:20:14;;;;;;;;;;;;;;;-2.69;53.80;92934.91;2041293;70;20086;-72
2022/03/08 03:22:39;;;;;;;;;;;;;;;-2.68;53.91;92934.38;2041411;70;20083;-73
2022/03/08 03:25:05;;;;;;;;;;;;;;;-2.52;53.54;92945.72;2041315;70;20507;-73
2022/03/08 03:27:31;;;;;;;;;;;;;;;-2.56;53.30;92935.00;2041373;70;20082;-72
2022/03/08 03:29:56;;;;;;;;;;;;;;;-2.65;54.10;92936.09;2041301;70;20485;-72
2022/03/08 03:32:23;;;;;;;;;;;;;;;-2.79;55.68;92931.75;2041391;70;20044;-72
2022/03/08 03:34:48;;;;;;;;;;;;;;;-2.75;54.94;92926.69;2041321;70;20052;-72
2022/03/08 03:37:14;;;;;;;;;;;;;;;-2.90;54.31;92921.59;2041282;70;20069;-72
2022/03/08 03:39:39;;;;;;;;;;;;;;;-2.94;54.57;92925.91;2041317;70;20048;-73
2022/03/08 03:42:05;;;;;;;;;;;;;;;-2.93;54.10;92908.09;2041499;70;20051;-73
2022/03/08 03:44:30;;;;;;;;;;;;;;;-2.95;54.00;92914.16;2041371;70;20056;-73
2022/03/08 03:46:57;;;;;;;;;;;;;;;-2.98;54.47;92911.69;2041239;70;20059;-73
2022/03/08 03:49:22;;;;;;;;;;;;;;;-2.83;53.63;92918.28;2041436;70;20150;-72
2022/03/08 03:51:50;;;;;;;;;;;;;;;-2.91;54.07;92914.59;2041416;70;20489;-72
2022/03/08 03:54:20;;;;;;;;;;;;;;;-2.87;53.90;92919.84;2041279;70;20055;-72
2022/03/08 03:56:45;;;;;;;;;;;;;;;-2.90;54.67;92909.84;2041277;70;20059;-73
2022/03/08 03:59:11;;;;;;;;;;;;;;;-2.90;54.63;92915.34;2041055;70;20063;-72
2022/03/08 04:01:39;;;;;;;;;;;;;;;-2.86;52.80;92919.31;2041296;70;20047;-73
2022/03/08 04:04:05;;;;;;;;;;;;;;;-2.98;53.65;92908.91;2041229;70;20056;-73
2022/03/08 04:06:30;;;;;;;;;;;;;;;-2.91;54.35;92913.88;2041235;70;20059;-72
2022/03/08 04:08:56;;;;;;;;;;;;;;;-2.88;54.21;92912.84;2041334;70;20481;-72
2022/03/08 04:11:22;;;;;;;;;;;;;;;-2.83;51.77;92914.78;2041382;70;20083;-73
2022/03/08 04:13:47;;;;;;;;;;;;;;;-3.07;54.25;92912.78;2041103;70;20119;-72
2022/03/08 04:16:13;;;;;;;;;;;;;;;-2.99;53.67;92908.19;2041318;70;20076;-73
2022/03/08 04:18:38;;;;;;;;;;;;;;;-3.09;53.53;92912.56;2046157;70;20094;-74
2022/03/08 04:21:04;;;;;;;;;;;;;;;-3.13;53.73;92909.34;2041401;70;20576;-73
2022/03/08 04:23:29;;;;;;;;;;;;;;;-3.09;53.48;92902.28;2041699;70;20052;-72
2022/03/08 04:25:55;;;;;;;;;;;;;;;-3.01;53.40;92901.72;2041672;70;20055;-72
2022/03/08 04:28:20;;;;;;;;;;;;;;;-3.09;53.41;92901.53;2041643;70;20056;-72
2022/03/08 04:30:46;;;;;;;;;;;;;;;-3.17;54.02;92906.13;2041576;70;20043;-73
2022/03/08 04:33:11;;;;;;;;;;;;;;;-3.15;54.33;92909.88;2041669;70;20146;-72
2022/03/08 04:35:37;;;;;;;;;;;;;;;-3.16;53.78;92902.09;2041689;70;20043;-72
2022/03/08 04:38:03;;;;;;;;;;;;;;;-3.20;54.09;92913.44;2041847;70;20147;-73
2022/03/08 04:40:29;;;;;;;;;;;;;;;-3.30;54.07;92906.00;2041161;70;20223;-73
2022/03/08 04:42:54;;;;;;;;;;;;;;;-3.25;53.49;92913.47;2041687;70;20510;-74
2022/03/08 04:45:20;;;;;;;;;;;;;;;-3.40;53.81;92913.88;2041576;70;20067;-74
2022/03/08 04:47:46;;;;;;;;;;;;;;;-3.35;54.18;92919.31;2041654;70;20135;-73
2022/03/08 04:50:14;;;;;;;;;;;;;;;-3.44;54.77;92924.41;2041808;70;20052;-75
2022/03/08 04:52:40;;;;;;;;;;;;;;;-3.25;54.19;92917.00;2041146;70;20051;-73
2022/03/08 04:55:06;;;;;;;;;;;;;;;-3.26;54.80;92923.00;2041150;70;20058;-73
2022/03/08 04:57:32;;;;;;;;;;;;;;;-3.30;54.69;92915.00;2041669;70;20094;-73
2022/03/08 04:59:57;;;;;;;;;;;;;;;-3.36;55.46;92912.31;2041475;70;20443;-74
2022/03/08 05:02:25;;;;;;;;;;;;;;;-3.28;54.69;92911.75;2041088;70;20119;-73
2022/03/08 05:04:50;;;;;;;;;;;;;;;-3.48;55.48;92910.97;2041638;70;20064;-73
2022/03/08 05:07:16;;;;;;;;;;;;;;;-3.44;54.72;92902.41;2041054;70;20130;-73
2022/03/08 05:09:41;;;;;;;;;;;;;;;-3.38;54.27;92903.09;2041116;70;20143;-73
2022/03/08 05:12:08;;;;;;;;;;;;;;;-3.40;54.54;92903.59;2041844;70;20477;-73
2022/03/08 05:14:34;;;;;;;;;;;;;;;-3.43;54.41;92903.91;2041081;70;20150;-74
2022/03/08 05:16:59;;;;;;;;;;;;;;;-3.53;54.99;92892.47;2041608;70;20096;-74
2022/03/08 05:19:24;;;;;;;;;;;;;;;-3.50;54.32;92888.69;2041599;70;20052;-73
2022/03/08 05:21:50;;;;;;;;;;;;;;;-3.44;53.81;92891.38;2041593;70;20420;-74
2022/03/08 05:24:15;;;;;;;;;;;;;;;-3.40;53.79;92891.84;2041063;70;20051;-74
2022/03/08 05:26:42;;;;;;;;;;;;;;;-3.46;54.55;92891.16;2041679;70;20051;-73
2022/03/08 05:29:08;;;;;;;;;;;;;;;-3.30;54.13;92889.50;2041501;70;20089;-74
2022/03/08 05:31:34;;;;;;;;;;;;;;;-3.22;53.22;92884.91;2041509;70;20043;-73
2022/03/08 05:33:59;;;;;;;;;;;;;;;-3.16;52.71;92883.59;2041558;70;20082;-74
2022/03/08 05:36:26;;;;;;;;;;;;;;;-3.18;52.66;92888.13;2041610;70;20262;-74
2022/03/08 05:38:51;;;;;;;;;;;;;;;-3.23;52.15;92884.16;2041602;70;20143;-73
2022/03/08 05:41:18;;;;;;;;;;;;;;;-3.68;56.79;92895.59;2041718;70;20062;-74
2022/03/08 05:43:44;;;;;;;;;;;;;;;-3.56;56.45;92895.53;2041602;70;20228;-74
2022/03/08 05:46:09;;;;;;;;;;;;;;;-3.55;55.73;92900.50;2041046;70;20416;-74
2022/03/08 05:48:34;;;;;;;;;;;;;;;-3.52;56.17;92896.00;2041632;70;20485;-74
2022/03/08 05:51:00;;;;;;;;;;;;;;;-3.49;56.89;92895.69;2041617;70;20484;-74
2022/03/08 05:53:25;;;;;;;;;;;;;;;-3.51;55.17;92895.47;2046475;70;20472;-74
2022/03/08 05:55:51;;;;;;;;;;;;;;;-3.50;55.17;92894.19;2041613;70;20055;-74
2022/03/08 05:58:16;;;;;;;;;;;;;;;-3.53;55.95;92895.22;2041610;70;20055;-74
2022/03/08 06:00:41;;;;;;;;;;;;;;;-3.52;55.06;92898.75;2041382;70;20078;-73
2022/03/08 06:03:07;;;;;;;;;;;;;;;-3.52;55.66;92907.75;2041466;70;20043;-73
2022/03/08 06:05:33;;;;;;;;;;;;;;;-3.51;56.23;92905.72;2041642;70;20054;-72
2022/03/08 06:07:58;;;;;;;;;;;;;;;-3.47;55.28;92912.44;2041457;70;20058;-72
2022/03/08 06:10:24;;;;;;;;;;;;;;;-3.56;56.21;92910.03;2046440;70;20064;-72
2022/03/08 06:12:49;;;;;;;;;;;;;;;-3.52;55.90;92907.00;2041493;70;20059;-72
2022/03/08 06:15:15;;;;;;;;;;;;;;;-3.52;56.08;92907.00;2041367;70;20068;-73
2022/03/08 06:17:40;;;;;;;;;;;;;;;-3.41;56.55;92910.38;2041475;70;20046;-73
2022/03/08 06:20:06;;;;;;;;;;;;;;;-3.39;56.01;92915.34;2041525;70;20051;-73
2022/03/08 06:22:31;;;;;;;;;;;;;;;-3.34;56.13;92918.06;2041566;70;20051;-73
2022/03/08 06:24:57;;;;;;;;;;;;;;;-3.32;54.89;92915.53;2040961;70;20047;-73
2022/03/08 06:27:24;;;;;;;;;;;;;;;-3.34;55.22;92912.56;2041411;70;20075;-74
2022/03/08 06:29:51;;;;;;;;;;;;;;;-3.40;54.91;92908.38;2041365;70;20516;-72
2022/03/08 06:32:17;;;;;;;;;;;;;;;-3.16;53.44;92913.13;2041575;70;20054;-73
2022/03/08 06:34:42;;;;;;;;;;;;;;;-3.09;53.91;92915.31;2041415;70;20085;-72
2022/03/08 06:37:08;;;;;;;;;;;;;;;-3.30;54.74;92917.03;2041424;70;20366;-73
2022/03/08 06:39:33;;;;;;;;;;;;;;;-3.33;55.77;92913.31;2041552;70;20076;-72
2022/03/08 06:41:59;;;;;;;;;;;;;;;-3.32;55.45;92912.03;2041459;70;20050;-73
2022/03/08 06:44:24;;;;;;;;;;;;;;;-3.30;56.08;92922.53;2041312;70;20502;-73
2022/03/08 06:46:49;;;;;;;;;;;;;;;-3.32;55.41;92918.28;2041409;70;20568;-73
2022/03/08 06:49:15;;;;;;;;;;;;;;;-3.38;56.35;92927.88;2041399;70;20046;-74
2022/03/08 06:51:40;;;;;;;;;;;;;;;-3.39;56.91;92929.88;2041535;70;20052;-74
2022/03/08 06:54:06;;;;;;;;;;;;;;;-3.39;57.24;92940.91;2041578;70;20060;-74
2022/03/08 06:56:33;;;;;;;;;;;;;;;-3.14;56.75;92943.66;2041385;70;20043;-73
2022/03/08 06:58:59;;;;;;;;;;;;;;;-3.13;56.42;92942.38;2041188;70;20055;-72
2022/03/08 07:01:24;;;;;;;;;;;;;;;-3.06;56.55;92941.81;2041415;70;20135;-72
2022/03/08 07:03:50;;;;;;;;;;;;;;;-2.98;55.91;92950.97;2041340;70;20043;-73
2022/03/08 07:06:16;;;;;;;;;;;;;;;-3.00;55.97;92956.28;2041482;70;20052;-73
2022/03/08 07:08:42;;;;;;;;;;;;;;;-2.74;55.19;92957.78;2040816;70;20444;-74
2022/03/08 07:11:09;;;;;;;;;;;;;;;-2.72;55.65;92964.22;2041375;70;20067;-74
2022/03/08 07:13:35;;;;;;;;;;;;;;;-2.64;55.09;92961.66;2041490;70;20075;-76
2022/03/08 07:16:01;;;;;;;;;;;;;;;-2.53;55.68;92969.78;2041261;70;20449;-75
2022/03/08 07:18:27;;;;;;;;;;;;;;;-2.74;56.37;92969.53;2041476;70;20048;-76
2022/03/08 07:20:53;;;;;;;;;;;;;;;-2.54;56.01;92973.81;2041369;70;20131;-76
2022/03/08 07:23:19;;;;;;;;;;;;;;;-2.36;55.55;92975.09;2041311;70;20176;-75
2022/03/08 07:25:45;;;;;;;;;;;;;;;-2.20;54.75;92979.66;2038270;70;20142;-75
2022/03/08 07:28:11;;;;;;;;;;;;;;;-2.10;54.73;92977.28;2041426;70;20513;-74
2022/03/08 07:30:36;;;;;;;;;;;;;;;-1.87;53.89;92975.69;2041231;70;20051;-74
2022/03/08 07:33:02;;;;;;;;;;;;;;;-1.92;54.34;92976.53;2041392;70;20043;-75
2022/03/08 07:35:27;;;;;;;;;;;;;;;-1.81;53.72;92970.81;2041322;70;20054;-75
2022/03/08 07:37:53;;;;;;;;;;;;;;;-2.26;54.58;92976.22;2041348;70;20042;-72
2022/03/08 07:40:18;;;;;;;;;;;;;;;-2.53;56.24;92978.03;2041442;70;20115;-73
2022/03/08 07:42:44;;;;;;;;;;;;;;;-2.66;56.68;92977.94;2041444;70;20074;-74
2022/03/08 07:45:09;;;;;;;;;;;;;;;-1.86;54.12;92979.94;2041222;70;20151;-74
2022/03/08 07:47:35;;;;;;;;;;;;;;;-2.38;55.93;92972.88;2041372;70;20485;-74
2022/03/08 07:50:02;;;;;;;;;;;;;;;-2.02;54.71;92977.41;2041266;70;20090;-73
2022/03/08 07:52:28;;;;;;;;;;;;;;;-1.59;53.55;92974.53;2041331;70;20129;-74
2022/03/08 07:54:55;;;;;;;;;;;;;;;-1.70;54.13;92969.16;2041121;70;20047;-74
2022/03/08 07:57:21;;;;;;;;;;;;;;;-1.48;53.01;92982.63;2041385;70;20065;-74
2022/03/08 07:59:46;;;;;;;;;;;;;;;-1.14;51.88;92980.09;2041171;70;20131;-72
2022/03/08 08:02:11;;;;;;;;;;;;;;;-1.36;53.23;92975.66;2041411;70;20056;-73
2022/03/08 08:04:37;;;;;;;;;;;;;;;-1.34;53.27;92980.66;2041364;70;20043;-73
2022/03/08 08:07:03;;;;;;;;;;;;;;;-0.65;50.65;92984.47;2041217;70;20051;-73
2022/03/08 08:09:28;;;;;;;;;;;;;;;-0.38;49.62;92988.75;2041341;70;20048;-72
2022/03/08 08:11:53;;;;;;;;;;;;;;;-0.05;49.86;92981.78;2041239;70;20130;-73
2022/03/08 08:14:19;;;;;;;;;;;;;;;0.03;50.42;92989.44;2041142;70;20146;-72
2022/03/08 08:16:45;;;;;;;;;;;;;;;0.44;49.53;92992.28;2041189;70;20476;-72
2022/03/08 08:19:11;;;;;;;;;;;;;;;0.69;47.30;92989.22;2041152;70;20047;-73
2022/03/08 08:21:36;;;;;;;;;;;;;;;0.84;47.55;92997.69;2041196;70;20358;-73
2022/03/08 08:24:02;;;;;;;;;;;;;;;0.77;48.42;92988.00;2041148;70;20047;-73
2022/03/08 08:26:27;;;;;;;;;;;;;;;0.90;45.49;92997.53;2041175;70;20062;-73
2022/03/08 08:28:53;;;;;;;;;;;;;;;1.15;46.06;92990.38;2041060;70;20146;-73
2022/03/08 08:31:19;;;;;;;;;;;;;;;0.50;48.57;92986.63;2037958;70;20468;-73
2022/03/08 08:33:44;;;;;;;;;;;;;;;0.54;47.61;92986.28;2041201;70;20170;-76
2022/03/08 08:36:10;;;;;;;;;;;;;;;1.08;47.28;92984.75;2041158;70;20060;-73
2022/03/08 08:38:35;;;;;;;;;;;;;;;1.13;46.12;92987.38;2041264;70;20393;-73
2022/03/08 08:41:01;;;;;;;;;;;;;;;1.20;45.52;92980.41;2041133;70;20468;-76
2022/03/08 08:43:26;;;;;;;;;;;;;;;1.60;45.01;92972.53;2041099;70;20055;-73
2022/03/08 08:45:52;;;;;;;;;;;;;;;2.06;44.75;92983.88;2041054;70;20051;-73
2022/03/08 08:48:19;;;;;;;;;;;;;;;1.46;45.49;92979.47;2041242;70;20416;-73
2022/03/08 08:50:44;;;;;;;;;;;;;;;1.36;44.79;92981.25;2041249;70;20521;-75
2022/03/08 08:53:09;;;;;;;;;;;;;;;2.53;45.03;92977.94;2041118;70;20124;-76
2022/03/08 08:55:37;;;;;;;;;;;;;;;3.11;42.65;92960.94;2040675;70;20115;-75
2022/03/08 08:58:03;;;;;;;;;;;;;;;3.46;42.66;92967.63;2041097;70;20050;-76
2022/03/08 09:00:29;;;;;;;;;;;;;;;2.91;42.86;92960.56;2040870;70;20050;-75
2022/03/08 09:02:56;;;;;;;;;;;;;;;3.51;42.71;92955.53;2041125;70;20158;-75
2022/03/08 09:05:21;;;;;;;;;;;;;;;3.74;42.20;92958.28;2041189;70;20111;-76
2022/03/08 09:07:47;;;;;;;;;;;;;;;4.39;40.68;92955.66;2041287;70;20048;-75
2022/03/08 09:10:13;;;;;;;;;;;;;;;3.29;40.91;92957.06;2041625;70;20118;-75
2022/03/08 09:12:39;;;;;;;;;;;;;;;3.22;41.11;92950.19;2041442;70;20147;-76
2022/03/08 09:15:05;;;;;;;;;;;;;;;4.26;41.97;92942.72;2041465;70;20162;-75
2022/03/08 09:17:31;;;;;;;;;;;;;;;4.42;40.26;92939.84;2041552;70;20072;-75
2022/03/08 09:19:56;;;;;;;;;;;;;;;4.45;39.08;92935.94;2041640;70;20477;-75
2022/03/08 09:22:22;;;;;;;;;;;;;;;4.40;39.05;92928.50;2041605;70;20051;-74
2022/03/08 09:24:47;;;;;;;;;;;;;;;4.81;37.57;92935.53;2041571;70;20115;-74
2022/03/08 09:27:13;;;;;;;;;;;;;;;4.19;38.88;92928.81;2040976;70;20039;-75
2022/03/08 09:29:38;;;;;;;;;;;;;;;4.64;37.69;92922.25;2041548;70;20114;-75
2022/03/08 09:32:04;;;;;;;;;;;;;;;4.31;38.94;92921.50;2041528;70;20106;-74
2022/03/08 09:34:29;;;;;;;;;;;;;;;4.95;38.60;92924.81;2041505;70;20055;-75
2022/03/08 09:36:55;;;;;;;;;;;;;;;5.70;38.35;92919.16;2041622;70;20178;-75
2022/03/08 09:39:20;;;;;;;;;;;;;;;5.44;36.57;92921.25;2041456;70;20146;-75
2022/03/08 09:41:45;;;;;;;;;;;;;;;4.96;37.36;92915.16;2041450;70;20044;-75
2022/03/08 09:44:14;;;;;;;;;;;;;;;5.22;38.52;92914.59;2041442;70;20040;-75
2022/03/08 09:46:40;;;;;;;;;;;;;;;5.35;36.94;92914.25;2041001;70;20520;-75
2022/03/08 09:49:05;;;;;;;;;;;;;;;6.36;36.42;92907.06;2041645;70;20506;-74
2022/03/08 09:51:31;;;;;;;;;;;;;;;6.66;35.98;92902.38;2041539;70;20048;-75
2022/03/08 09:53:56;;;;;;;;;;;;;;;6.50;36.88;92898.31;2043711;70;20051;-75
2022/03/08 09:56:22;;;;;;;;;;;;;;;6.83;34.89;92896.00;2041555;70;20051;-74
2022/03/08 09:58:48;;;;;;;;;;;;;;;7.48;33.76;92886.19;2041282;70;20048;-75
2022/03/08 10:01:13;;;;;;;;;;;;;;;7.49;32.23;92884.84;2041533;70;20047;-76
2022/03/08 10:03:43;;;;;;;;;;;;;;;6.70;33.47;92883.13;2041693;70;20043;-74
2022/03/08 10:06:09;;;;;;;;;;;;;;;6.66;32.86;92882.81;2041855;70;20044;-75
2022/03/08 10:08:35;;;;;;;;;;;;;;;8.07;32.08;92879.31;2041475;70;20063;-75
2022/03/08 10:11:20;;;;;;;;;;;;;;;7.89;31.74;92868.25;2041597;70;20054;-73
2022/03/08 10:13:49;;;;;;;;;;;;;;;8.86;30.05;92868.13;2041304;70;20496;-73
2022/03/08 10:16:23;;;;;;;;;;;;;;;7.68;31.23;92864.53;2041452;70;20093;-76
2022/03/08 10:18:52;;;;;;;;;;;;;;;8.70;31.06;92855.00;2039906;70;20076;-72
2022/03/08 10:21:24;;;;;;;;;;;;;;;9.89;29.92;92853.94;2037545;70;20052;-72
2022/03/08 10:23:50;;;;;;;;;;;;;;;9.80;30.48;92854.75;2037831;70;20043;-74
2022/03/08 10:26:15;;;;;;;;;;;;;;;10.39;28.98;92850.16;2037767;70;20514;-73
2022/03/08 10:28:48;;;;;;;;;;;;;;;10.71;28.90;92844.38;2037541;70;20242;-73
2022/03/08 10:31:16;;;;;;;;;;;;;;;9.09;29.20;92839.50;2037313;70;20051;-74
2022/03/08 10:33:42;;;;;;;;;;;;;;;9.85;28.71;92847.31;2037829;70;20881;-74
2022/03/08 10:36:13;;;;;;;;;;;;;;;10.81;28.16;92842.19;2037793;70;20076;-74
2022/03/08 10:38:57;;;;;;;;;;;;;;;9.86;27.60;92831.94;2037806;70;20056;-74
2022/03/08 10:41:22;;;;;;;;;;;;;;;10.92;27.48;92833.03;2037825;70;20066;-74
2022/03/08 10:43:49;;;;;;;;;;;;;;;12.30;25.83;92826.34;2037752;70;20477;-75
2022/03/08 10:46:18;;;;;;;;;;;;;;;11.29;26.38;92819.06;2037261;70;20076;-76
2022/03/08 10:48:46;;;;;;;;;;;;;;;12.24;25.83;92819.63;2037596;70;20394;-75
2022/03/08 10:51:15;;;;;;;;;;;;;;;13.34;24.63;92817.13;2037778;70;20047;-74
2022/03/08 10:53:43;;;;;;;;;;;;;;;13.90;24.08;92810.81;2037750;70;20492;-74
2022/03/08 10:56:11;;;;;;;;;;;;;;;14.36;23.48;92806.00;2037698;70;20071;-74
2022/03/08 10:58:49;;;;;;;;;;;;;;;13.90;23.11;92807.25;2037600;70;20052;-75
2022/03/08 11:01:15;;;;;;;;;;;;;;;14.74;22.27;92809.94;2037689;70;20087;-75
2022/03/08 11:03:53;;;;;;;;;;;;;;;15.19;20.79;92814.84;2037723;70;20082;-75
2022/03/08 11:06:19;;;;;;;;;;;;;;;13.22;21.43;92803.06;2037782;70;20191;-76
2022/03/08 11:08:44;;;;;;;;;;;;;;;14.79;21.61;92808.03;2037711;70;20166;-75
2022/03/08 11:11:10;;;;;;;;;;;;;;;15.81;21.16;92809.81;2037775;70;20055;-75
2022/03/08 11:13:36;;;;;;;;;;;;;;;14.92;20.21;92792.34;2037827;70;20151;-74
2022/03/08 11:16:03;;;;;;;;;;;;;;;15.97;19.51;92799.13;2037782;70;20044;-74
2022/03/08 11:18:30;;;;;;;;;;;;;;;16.92;18.32;92793.06;2037632;70;20067;-76
2022/03/08 11:20:58;;;;;;;;;;;;;;;19.71;17.58;92790.34;2037837;70;20075;-75
2022/03/08 11:23:24;;;;;;;;;;;;;;;20.67;16.81;92795.03;2037826;70;20060;-73
2022/03/08 11:25:50;;;;;;;;;;;;;;;18.87;16.64;92789.22;2036935;70;20416;-76
2022/03/08 11:28:16;;;;;;;;;;;;;;;20.22;16.81;92788.88;2037627;70;20508;-75
2022/03/08 11:30:43;;;;;;;;;;;;;;;20.48;15.41;92788.84;2037445;70;20075;-73
2022/03/08 11:33:19;;;;;;;;;;;;;;;19.95;15.63;92784.56;2037723;70;20071;-74
2022/03/08 11:35:57;;;;;;;;;;;;;;;23.42;15.55;92785.41;2037711;70;20471;-73
2022/03/08 11:38:23;;;;;;;;;;;;;;;22.66;14.87;92777.72;2037001;70;20048;-73
2022/03/08 11:40:55;;;;;;;;;;;;;;;23.36;15.01;92779.56;2037626;70;20392;-74
2022/03/08 11:43:35;;;;;;;;;;;;;;;24.03;13.95;92780.47;2037667;70;20059;-74
2022/03/08 11:46:10;;;;;;;;;;;;;;;21.46;14.83;92768.25;2037692;70;20156;-74
2022/03/08 11:48:48;;;;;;;;;;;;;;;20.50;15.32;92760.31;2037706;70;20040;-74
2022/03/08 11:51:14;;;;;;;;;;;;;;;22.73;14.40;92764.97;2037225;70;20044;-76
2022/03/08 11:53:41;;;;;;;;;;;;;;;22.79;13.80;92762.19;2037766;70;20055;-80
2022/03/08 11:56:15;;;;;;;;;;;;;;;22.22;14.27;92756.19;2039773;70;20070;-78
2022/03/08 11:58:43;;;;;;;;;;;;;;;22.24;14.74;92752.63;2037518;70;20068;-75
2022/03/08 12:01:20;;;;;;;;;;;;;;;25.64;13.77;92763.94;2039582;70;20056;-74
2022/03/08 12:03:46;;;;;;;;;;;;;;;21.73;14.76;92752.34;2037784;70;20046;-75
2022/03/08 12:06:18;;;;;;;;;;;;;;;21.67;14.35;92751.47;2037703;70;20059;-75
2022/03/08 12:08:46;;;;;;;;;;;;;;;22.66;14.94;92746.19;2037708;70;20498;-75
2022/03/08 12:11:15;;;;;;;;;;;;;;;22.05;14.88;92749.41;2037661;70;20084;-75
2022/03/08 12:13:42;;;;;;;;;;;;;;;24.48;13.78;92752.97;2037298;70;20077;-75
2022/03/08 12:16:08;;;;;;;;;;;;;;;25.18;13.81;92751.41;2037513;70;20063;-75
2022/03/08 12:18:38;;;;;;;;;;;;;;;25.60;13.36;92762.47;2036627;70;20489;-75
2022/03/08 12:21:23;;;;;;;;;;;;;;;26.59;13.06;92760.75;2040832;70;20071;-76
2022/03/08 12:23:52;;;;;;;;;;;;;;;27.65;11.87;92754.97;2040989;70;20075;-76
2022/03/08 12:26:22;;;;;;;;;;;;;;;26.26;11.78;92745.50;2040769;70;20051;-75
2022/03/08 12:29:06;;;;;;;;;;;;;;;28.27;12.08;92753.34;2040082;70;20119;-75
2022/03/08 12:31:32;;;;;;;;;;;;;;;27.70;11.87;92744.81;2039546;70;20067;-76
2022/03/08 12:34:07;;;;;;;;;;;;;;;27.40;11.63;92744.88;2040885;70;20058;-76
2022/03/08 12:36:33;;;;;;;;;;;;;;;27.52;11.46;92742.69;2040960;70;20067;-78
2022/03/08 12:38:59;;;;;;;;;;;;;;;27.65;11.45;92740.50;2040822;70;20066;-76
2022/03/08 12:41:25;;;;;;;;;;;;;;;28.20;11.82;92745.41;2040906;70;20512;-75
2022/03/08 12:44:00;;;;;;;;;;;;;;;27.85;11.84;92740.47;2041244;70;20497;-74